createdAt,value
2019-05-18T00:00:10.597Z,84.90
2019-05-18T00:02:37.996Z,83.60
2019-05-18T00:05:05.744Z,84.00
2019-05-18T00:07:33.221Z,84.00
2019-05-18T00:10:02.487Z,84.00
2019-05-18T00:12:29.954Z,84.60
2019-05-18T00:14:57.321Z,85.50
2019-05-18T00:17:25.621Z,84.40
2019-05-18T00:19:53.155Z,84.80
2019-05-18T00:22:20.521Z,84.90
2019-05-18T00:24:47.944Z,84.30
2019-05-18T00:27:15.420Z,85.60
2019-05-18T00:29:42.795Z,85.70
2019-05-18T00:32:10.263Z,85.20
2019-05-18T00:34:37.641Z,86.00
2019-05-18T00:37:05.019Z,85.90
2019-05-18T00:39:32.501Z,86.80
2019-05-18T00:41:59.836Z,86.70
2019-05-18T00:44:27.206Z,86.90
2019-05-18T00:46:54.619Z,87.30
2019-05-18T00:49:22.022Z,87.30
2019-05-18T00:51:49.311Z,87.40
2019-05-18T00:54:16.738Z,87.20
2019-05-18T00:56:43.997Z,88.40
2019-05-18T00:59:15.888Z,88.20
2019-05-18T01:01:40.661Z,88.90
2019-05-18T01:04:08.079Z,90.20
2019-05-18T01:06:35.367Z,89.90
2019-05-18T01:09:04.650Z,89.90
2019-05-18T01:11:32.028Z,90.40
2019-05-18T01:13:59.417Z,90.50
2019-05-18T01:16:26.731Z,90.50
2019-05-18T01:18:54.178Z,91.00
2019-05-18T01:21:21.597Z,91.00
2019-05-18T01:23:48.974Z,91.00
2019-05-18T01:26:16.604Z,91.50
2019-05-18T01:28:43.968Z,91.80
2019-05-18T01:31:11.361Z,92.00
2019-05-18T01:33:38.835Z,92.40
2019-05-18T01:36:06.226Z,92.60
2019-05-18T01:38:33.623Z,92.90
2019-05-18T01:41:01.065Z,93.30
2019-05-18T01:43:28.382Z,93.30
2019-05-18T01:45:55.677Z,93.70
2019-05-18T01:48:23.122Z,93.30
2019-05-18T01:50:50.471Z,93.70
2019-05-18T01:53:17.935Z,93.80
2019-05-18T01:55:45.523Z,93.80
2019-05-18T01:58:13.011Z,93.90
2019-05-18T02:00:40.420Z,93.90
2019-05-18T02:03:07.773Z,93.90
2019-05-18T02:05:35.149Z,93.70
2019-05-18T02:08:02.583Z,93.70
2019-05-18T02:10:29.932Z,93.80
2019-05-18T02:12:57.348Z,94.00
2019-05-18T02:15:24.713Z,93.90
2019-05-18T02:17:52.010Z,94.10
2019-05-18T02:20:19.379Z,94.30
2019-05-18T02:22:46.785Z,94.50
2019-05-18T02:25:14.931Z,94.80
2019-05-18T02:27:42.315Z,95.10
2019-05-18T02:30:11.043Z,95.20
2019-05-18T02:32:38.638Z,95.30
2019-05-18T02:35:06.114Z,95.70
2019-05-18T02:37:33.489Z,96.00
2019-05-18T02:40:00.885Z,96.30
2019-05-18T02:42:30.836Z,96.60
2019-05-18T02:44:57.688Z,96.90
2019-05-18T02:47:25.183Z,97.20
2019-05-18T02:49:52.859Z,97.60
2019-05-18T02:52:20.243Z,97.20
2019-05-18T02:54:47.660Z,97.40
2019-05-18T02:57:15.175Z,97.40
2019-05-18T02:59:42.634Z,97.40
2019-05-18T03:02:10.046Z,97.50
2019-05-18T03:04:37.439Z,97.80
2019-05-18T03:07:04.789Z,97.90
2019-05-18T03:09:32.249Z,98.00
2019-05-18T03:11:59.653Z,98.00
2019-05-18T03:14:27.068Z,98.10
2019-05-18T03:16:54.448Z,97.60
2019-05-18T03:19:21.809Z,96.90
2019-05-18T03:21:49.159Z,95.90
2019-05-18T03:24:17.320Z,95.60
2019-05-18T03:26:44.625Z,96.20
2019-05-18T03:29:12.257Z,96.20
2019-05-18T03:31:39.674Z,96.30
2019-05-18T03:34:07.074Z,96.30
2019-05-18T03:36:34.558Z,96.80
2019-05-18T03:39:02.033Z,97.40
2019-05-18T03:41:29.418Z,97.30
2019-05-18T03:43:56.985Z,97.80
2019-05-18T03:46:24.399Z,97.20
2019-05-18T03:48:51.840Z,98.30
2019-05-18T03:51:19.402Z,98.60
2019-05-18T03:53:46.827Z,98.80
2019-05-18T03:56:14.327Z,98.20
2019-05-18T03:58:41.709Z,98.10
2019-05-18T04:01:09.106Z,97.00
2019-05-18T04:03:36.531Z,95.30
2019-05-18T04:06:03.927Z,94.70
2019-05-18T04:08:31.286Z,94.50
2019-05-18T04:10:58.693Z,93.40
2019-05-18T04:13:26.067Z,93.40
2019-05-18T04:15:53.509Z,93.80
2019-05-18T04:18:20.862Z,94.00
2019-05-18T04:20:48.295Z,94.80
2019-05-18T04:23:16.946Z,95.70
2019-05-18T04:25:44.372Z,96.20
2019-05-18T04:28:11.735Z,96.80
2019-05-18T04:30:39.183Z,97.10
2019-05-18T04:33:06.586Z,97.70
2019-05-18T04:35:33.955Z,97.80
2019-05-18T04:38:01.440Z,98.10
2019-05-18T04:40:28.986Z,98.60
2019-05-18T04:42:56.445Z,98.80
2019-05-18T04:45:23.837Z,98.90
2019-05-18T04:47:51.185Z,99.00
2019-05-18T04:50:18.657Z,98.50
2019-05-18T04:52:46.120Z,98.40
2019-05-18T04:55:13.505Z,98.40
2019-05-18T04:57:40.952Z,99.50
2019-05-18T05:00:08.366Z,99.30
2019-05-18T05:02:35.745Z,98.50
2019-05-18T05:05:03.508Z,97.10
2019-05-18T05:07:30.921Z,95.90
2019-05-18T05:09:58.301Z,94.70
2019-05-18T05:12:25.677Z,94.40
2019-05-18T05:14:52.926Z,94.90
2019-05-18T05:17:20.561Z,94.80
2019-05-18T05:19:47.978Z,94.60
2019-05-18T05:22:15.802Z,94.90
2019-05-18T05:24:43.144Z,95.10
2019-05-18T05:27:10.519Z,96.10
2019-05-18T05:29:37.901Z,96.30
2019-05-18T05:32:05.550Z,96.80
2019-05-18T05:34:33.241Z,96.90
2019-05-18T05:37:00.751Z,97.80
2019-05-18T05:39:28.190Z,97.60
2019-05-18T05:41:55.601Z,97.50
2019-05-18T05:44:23.018Z,98.10
2019-05-18T05:46:50.709Z,98.70
2019-05-18T05:49:18.131Z,98.00
2019-05-18T05:51:45.575Z,98.40
2019-05-18T05:54:13.142Z,98.80
2019-05-18T05:56:40.571Z,99.60
2019-05-18T05:59:07.939Z,99.90
2019-05-18T06:01:35.327Z,99.90
2019-05-18T06:04:02.732Z,99.90
2019-05-18T06:06:30.106Z,99.90
2019-05-18T06:08:57.741Z,99.90
2019-05-18T06:11:25.178Z,99.80
2019-05-18T06:13:52.701Z,99.10
2019-05-18T06:16:20.093Z,98.10
2019-05-18T06:18:47.464Z,97.40
2019-05-18T06:21:14.874Z,97.00
2019-05-18T06:23:42.258Z,97.00
2019-05-18T06:26:09.649Z,97.40
2019-05-18T06:28:37.012Z,96.80
2019-05-18T06:31:04.419Z,96.20
2019-05-18T06:33:31.851Z,95.70
2019-05-18T06:35:59.347Z,95.20
2019-05-18T06:38:26.851Z,95.60
2019-05-18T06:40:54.364Z,95.60
2019-05-18T06:43:22.030Z,95.20
2019-05-18T06:45:49.414Z,95.30
2019-05-18T06:48:19.453Z,95.40
2019-05-18T06:50:47.273Z,95.70
2019-05-18T06:53:14.645Z,95.90
2019-05-18T06:55:42.351Z,95.70
2019-05-18T06:58:10.040Z,95.70
2019-05-18T07:00:37.507Z,96.20
2019-05-18T07:03:04.952Z,96.10
2019-05-18T07:05:32.369Z,95.80
2019-05-18T07:07:59.754Z,95.80
2019-05-18T07:10:27.020Z,96.00
2019-05-18T07:12:54.413Z,95.90
2019-05-18T07:15:21.775Z,95.70
2019-05-18T07:17:49.152Z,95.50
2019-05-18T07:20:16.806Z,95.40
2019-05-18T07:22:44.296Z,94.70
2019-05-18T07:25:13.650Z,94.50
2019-05-18T07:27:41.106Z,94.40
2019-05-18T07:30:08.721Z,94.30
2019-05-18T07:32:36.504Z,94.00
2019-05-18T07:35:04.083Z,92.80
2019-05-18T07:37:31.471Z,93.10
2019-05-18T07:39:58.992Z,93.00
2019-05-18T07:42:26.353Z,93.20
2019-05-18T07:44:53.750Z,93.20
2019-05-18T07:47:21.141Z,93.10
2019-05-18T07:49:48.524Z,92.40
2019-05-18T07:52:17.341Z,92.50
2019-05-18T07:54:44.843Z,92.50
2019-05-18T07:57:12.257Z,92.30
2019-05-18T07:59:39.736Z,92.40
2019-05-18T08:02:06.996Z,91.90
2019-05-18T08:04:34.473Z,92.30
2019-05-18T08:07:01.915Z,91.90
2019-05-18T08:09:29.286Z,91.20
2019-05-18T08:11:56.681Z,91.00
2019-05-18T08:14:24.160Z,91.00
2019-05-18T08:17:01.363Z,90.90
2019-05-18T08:19:28.755Z,90.80
2019-05-18T08:21:58.812Z,90.90
2019-05-18T08:24:28.904Z,91.00
2019-05-18T08:26:56.327Z,90.20
2019-05-18T08:29:23.733Z,90.20
2019-05-18T08:31:51.098Z,90.00
2019-05-18T08:34:18.402Z,89.90
2019-05-18T08:36:47.964Z,88.90
2019-05-18T08:39:15.454Z,87.60
2019-05-18T08:41:42.858Z,86.70
2019-05-18T08:44:10.278Z,85.80
2019-05-18T08:46:37.656Z,87.90
2019-05-18T08:49:04.987Z,88.30
2019-05-18T08:51:32.369Z,87.70
2019-05-18T08:53:59.752Z,88.80
2019-05-18T08:56:27.170Z,88.00
2019-05-18T08:58:54.503Z,88.40
2019-05-18T09:01:21.892Z,89.00
2019-05-18T09:03:49.300Z,88.60
2019-05-18T09:06:16.739Z,88.80
2019-05-18T09:08:46.913Z,88.80
2019-05-18T09:11:14.433Z,86.50
2019-05-18T09:13:41.799Z,86.40
2019-05-18T09:16:09.253Z,85.30
2019-05-18T09:18:36.713Z,84.70
2019-05-18T09:21:04.063Z,86.20
2019-05-18T09:23:31.471Z,85.40
2019-05-18T09:25:58.869Z,85.90
2019-05-18T09:28:26.327Z,83.80
2019-05-18T09:30:53.751Z,84.20
2019-05-18T09:33:21.299Z,82.70
2019-05-18T09:35:48.659Z,82.70
2019-05-18T09:38:16.191Z,83.40
2019-05-18T09:40:43.580Z,83.80
2019-05-18T09:43:11.089Z,83.50
2019-05-18T09:45:38.469Z,84.30
2019-05-18T09:48:06.070Z,84.80
2019-05-18T09:50:33.471Z,84.40
2019-05-18T09:53:00.967Z,84.10
2019-05-18T09:55:28.342Z,83.90
2019-05-18T09:57:55.731Z,82.70
2019-05-18T10:00:23.188Z,82.90
2019-05-18T10:02:50.506Z,82.60
2019-05-18T10:05:18.112Z,84.20
2019-05-18T10:07:45.591Z,85.00
2019-05-18T10:10:13.142Z,85.20
2019-05-18T10:12:40.623Z,83.90
2019-05-18T10:15:08.248Z,82.70
2019-05-18T10:17:35.643Z,83.30
2019-05-18T10:20:03.166Z,82.80
2019-05-18T10:22:30.886Z,83.10
2019-05-18T10:24:58.332Z,83.10
2019-05-18T10:27:25.705Z,82.20
2019-05-18T10:29:53.217Z,82.40
2019-05-18T10:32:20.599Z,83.20
2019-05-18T10:34:48.079Z,82.60
2019-05-18T10:37:15.654Z,82.90
2019-05-18T10:39:42.966Z,83.00
2019-05-18T10:42:10.342Z,82.00
2019-05-18T10:44:37.724Z,82.70
2019-05-18T10:47:05.126Z,81.80
2019-05-18T10:49:32.514Z,81.30
2019-05-18T10:51:59.952Z,82.20
2019-05-18T10:54:27.420Z,81.70
2019-05-18T10:56:54.851Z,80.70
2019-05-18T10:59:22.200Z,81.20
2019-05-18T11:01:49.617Z,81.40
2019-05-18T11:04:17.553Z,81.70
2019-05-18T11:06:44.952Z,81.70
2019-05-18T11:09:12.356Z,80.60
2019-05-18T11:11:39.758Z,79.90
2019-05-18T11:14:07.171Z,79.10
2019-05-18T11:16:34.560Z,79.70
2019-05-18T11:19:01.985Z,79.80
2019-05-18T11:21:29.297Z,80.50
2019-05-18T11:23:56.685Z,80.60
2019-05-18T11:26:24.180Z,80.80
2019-05-18T11:28:51.659Z,82.20
2019-05-18T11:31:19.077Z,82.70
2019-05-18T11:33:46.488Z,82.10
2019-05-18T11:36:13.852Z,82.90
2019-05-18T11:38:41.230Z,82.30
2019-05-18T11:41:08.600Z,82.10
2019-05-18T11:43:36.067Z,83.10
2019-05-18T11:46:03.802Z,82.70
2019-05-18T11:48:31.449Z,82.70
2019-05-18T11:50:58.920Z,84.30
2019-05-18T11:53:26.323Z,83.90
2019-05-18T11:55:53.755Z,83.90
2019-05-18T11:58:21.139Z,83.50
2019-05-18T12:00:49.010Z,84.00
2019-05-18T12:03:16.716Z,84.40
2019-05-18T12:05:44.220Z,84.40
2019-05-18T12:08:11.727Z,84.30
2019-05-18T12:10:39.109Z,83.80
2019-05-18T12:13:06.501Z,83.60
2019-05-18T12:15:33.983Z,82.80
2019-05-18T12:18:01.383Z,81.80
2019-05-18T12:20:28.923Z,81.10
2019-05-18T12:22:56.296Z,82.20
2019-05-18T12:25:23.763Z,82.70
2019-05-18T12:27:51.200Z,82.50
2019-05-18T12:30:18.935Z,82.20
2019-05-18T12:32:46.326Z,82.70
2019-05-18T12:35:14.013Z,83.10
2019-05-18T12:37:41.385Z,83.20
2019-05-18T12:40:12.179Z,83.40
2019-05-18T12:42:39.543Z,83.50
2019-05-18T12:45:07.627Z,83.00
2019-05-18T12:47:35.056Z,81.10
2019-05-18T12:50:02.593Z,80.60
2019-05-18T12:52:30.012Z,80.90
2019-05-18T12:54:57.534Z,81.30
2019-05-18T12:57:24.905Z,82.30
2019-05-18T12:59:52.333Z,82.20
2019-05-18T13:02:19.744Z,81.50
2019-05-18T13:04:51.320Z,81.80
2019-05-18T13:07:18.719Z,80.80
2019-05-18T13:09:46.171Z,80.60
2019-05-18T13:12:15.262Z,80.90
2019-05-18T13:14:42.834Z,80.20
2019-05-18T13:17:10.227Z,81.00
2019-05-18T13:19:37.844Z,80.90
2019-05-18T13:22:05.248Z,81.10
2019-05-18T13:24:44.210Z,81.80
2019-05-18T13:27:02.010Z,81.50
2019-05-18T13:29:29.474Z,81.30
2019-05-18T13:31:56.898Z,81.30
2019-05-18T13:34:24.370Z,81.40
2019-05-18T13:36:51.896Z,81.40
2019-05-18T13:39:19.415Z,81.90
2019-05-18T13:41:46.965Z,81.60
2019-05-18T13:44:14.429Z,81.70
2019-05-18T13:46:41.820Z,82.50
2019-05-18T13:49:09.264Z,81.70
2019-05-18T13:51:36.698Z,81.30
2019-05-18T13:54:04.117Z,80.70
2019-05-18T13:56:31.558Z,81.40
2019-05-18T13:58:59.026Z,81.50
2019-05-18T14:01:26.403Z,82.00
2019-05-18T14:03:53.983Z,81.90
2019-05-18T14:06:21.402Z,81.30
2019-05-18T14:08:48.812Z,81.40
2019-05-18T14:11:16.299Z,80.70
2019-05-18T14:13:43.833Z,81.40
2019-05-18T14:16:11.234Z,81.30
2019-05-18T14:18:38.617Z,82.00
2019-05-18T14:21:06.013Z,82.80
2019-05-18T14:23:33.420Z,82.10
2019-05-18T14:26:00.860Z,82.60
2019-05-18T14:28:28.309Z,83.10
2019-05-18T14:30:55.818Z,84.00
2019-05-18T14:33:29.937Z,85.00
2019-05-18T14:35:57.371Z,86.00
2019-05-18T14:38:24.757Z,86.30
2019-05-18T14:40:52.163Z,86.10
2019-05-18T14:43:19.485Z,86.40
2019-05-18T14:45:49.082Z,86.40
2019-05-18T14:48:16.259Z,85.80
2019-05-18T14:50:43.642Z,85.60
2019-05-18T14:53:10.984Z,85.40
2019-05-18T14:55:38.304Z,84.30
2019-05-18T14:58:05.677Z,85.00
2019-05-18T15:00:33.133Z,84.50
2019-05-18T15:03:00.588Z,84.90
2019-05-18T15:05:28.080Z,85.20
2019-05-18T15:07:55.630Z,85.00
2019-05-18T15:10:23.009Z,86.30
2019-05-18T15:12:50.460Z,86.30
2019-05-18T15:15:19.533Z,87.20
2019-05-18T15:17:47.148Z,87.80
2019-05-18T15:20:14.754Z,87.40
2019-05-18T15:22:42.202Z,87.50
2019-05-18T15:25:09.882Z,87.10
2019-05-18T15:27:37.394Z,86.30
2019-05-18T15:30:04.887Z,86.30
2019-05-18T15:32:32.834Z,85.90
2019-05-18T15:35:00.219Z,85.00
2019-05-18T15:37:27.625Z,82.40
2019-05-18T15:39:55.009Z,83.40
2019-05-18T15:42:22.660Z,83.70
2019-05-18T15:44:50.065Z,84.50
2019-05-18T15:47:17.555Z,85.10
2019-05-18T15:49:44.916Z,86.00
2019-05-18T15:52:12.363Z,85.90
2019-05-18T15:54:39.861Z,86.70
2019-05-18T15:57:07.498Z,87.00
2019-05-18T15:59:34.971Z,86.70
2019-05-18T16:02:06.271Z,86.30
2019-05-18T16:04:31.909Z,85.10
2019-05-18T16:06:59.413Z,85.00
2019-05-18T16:09:26.874Z,85.50
2019-05-18T16:11:54.272Z,86.00
2019-05-18T16:14:21.542Z,86.60
2019-05-18T16:16:49.037Z,86.70
2019-05-18T16:19:16.606Z,86.90
2019-05-18T16:21:43.984Z,87.10
2019-05-18T16:24:11.221Z,87.50
2019-05-18T16:26:38.639Z,87.60
2019-05-18T16:29:06.033Z,87.80
2019-05-18T16:31:33.420Z,87.80
2019-05-18T16:34:00.798Z,87.90
2019-05-18T16:36:28.212Z,87.50
2019-05-18T16:38:55.647Z,87.50
2019-05-18T16:41:22.997Z,87.00
2019-05-18T16:43:50.426Z,87.70
2019-05-18T16:46:17.876Z,86.60
2019-05-18T16:48:45.305Z,86.70
2019-05-18T16:51:12.770Z,86.30
2019-05-18T16:53:40.155Z,86.60
2019-05-18T16:56:07.568Z,86.70
2019-05-18T16:58:34.986Z,87.40
2019-05-18T17:01:02.336Z,87.00
2019-05-18T17:03:31.808Z,87.30
2019-05-18T17:05:59.224Z,87.10
2019-05-18T17:08:26.649Z,87.20
2019-05-18T17:10:54.091Z,87.30
2019-05-18T17:13:21.482Z,87.00
2019-05-18T17:15:48.846Z,86.70
2019-05-18T17:18:16.519Z,86.80
2019-05-18T17:20:43.900Z,86.10
2019-05-18T17:23:11.310Z,86.30
2019-05-18T17:25:38.671Z,86.60
2019-05-18T17:28:06.054Z,86.80
2019-05-18T17:30:33.487Z,86.10
2019-05-18T17:33:00.844Z,85.40
2019-05-18T17:35:28.247Z,84.50
2019-05-18T17:37:55.730Z,84.50
2019-05-18T17:40:23.154Z,85.00
2019-05-18T17:42:50.582Z,85.10
2019-05-18T17:45:18.216Z,85.70
2019-05-18T17:47:45.609Z,85.80
2019-05-18T17:50:13.355Z,85.70
2019-05-18T17:52:40.740Z,86.20
2019-05-18T17:55:08.209Z,86.30
2019-05-18T17:57:35.681Z,86.70
2019-05-18T18:00:03.508Z,86.10
2019-05-18T18:02:30.760Z,85.70
2019-05-18T18:04:58.246Z,85.80
2019-05-18T18:07:25.613Z,86.10
2019-05-18T18:09:53.060Z,85.30
2019-05-18T18:12:21.633Z,85.00
2019-05-18T18:14:49.337Z,85.30
2019-05-18T18:17:17.817Z,84.80
2019-05-18T18:19:45.321Z,84.80
2019-05-18T18:22:12.662Z,84.80
2019-05-18T18:24:40.107Z,84.70
2019-05-18T18:27:07.485Z,84.70
2019-05-18T18:29:34.885Z,84.40
2019-05-18T18:32:02.385Z,84.70
2019-05-18T18:34:29.814Z,84.50
2019-05-18T18:36:57.159Z,83.90
2019-05-18T18:39:24.549Z,83.60
2019-05-18T18:41:52.007Z,83.40
2019-05-18T18:44:19.390Z,83.70
2019-05-18T18:46:46.919Z,83.40
2019-05-18T18:49:14.384Z,83.50
2019-05-18T18:51:41.811Z,83.40
2019-05-18T18:54:12.375Z,83.80
2019-05-18T18:56:40.221Z,83.80
2019-05-18T18:59:07.639Z,83.90
2019-05-18T19:01:35.018Z,84.10
2019-05-18T19:04:02.507Z,84.50
2019-05-18T19:06:29.993Z,84.60
2019-05-18T19:08:57.457Z,84.60
2019-05-18T19:11:24.924Z,84.70
2019-05-18T19:13:52.335Z,84.70
2019-05-18T19:16:19.877Z,84.50
2019-05-18T19:18:47.386Z,84.00
2019-05-18T19:21:14.818Z,83.20
2019-05-18T19:23:42.280Z,82.80
2019-05-18T19:26:09.663Z,83.00
2019-05-18T19:28:37.061Z,83.10
2019-05-18T19:31:04.511Z,83.70
2019-05-18T19:33:31.917Z,88.00
2019-05-18T19:35:59.378Z,91.70
2019-05-18T19:38:26.788Z,93.90
2019-05-18T19:40:54.214Z,94.80
2019-05-18T19:43:21.649Z,95.80
2019-05-18T19:45:49.480Z,98.50
2019-05-18T19:48:16.983Z,99.90
2019-05-18T19:50:44.390Z,99.90
2019-05-18T19:53:11.794Z,99.90
2019-05-18T19:55:39.221Z,99.90
2019-05-18T19:58:08.858Z,99.90
2019-05-18T20:00:35.746Z,99.90
2019-05-18T20:03:03.311Z,99.90
2019-05-18T20:05:30.746Z,99.90
2019-05-18T20:07:58.166Z,99.90
2019-05-18T20:10:25.550Z,99.90
2019-05-18T20:12:52.985Z,99.90
2019-05-18T20:15:20.430Z,99.90
2019-05-18T20:17:47.997Z,99.90
2019-05-18T20:20:17.409Z,99.90
2019-05-18T20:22:44.791Z,99.90
2019-05-18T20:25:12.283Z,99.90
2019-05-18T20:27:39.792Z,99.90
2019-05-18T20:30:09.773Z,99.90
2019-05-18T20:32:37.194Z,99.90
2019-05-18T20:35:06.383Z,99.90
2019-05-18T20:37:33.769Z,99.90
2019-05-18T20:40:01.190Z,99.90
2019-05-18T20:42:28.697Z,99.90
2019-05-18T20:44:56.079Z,99.90
2019-05-18T20:47:23.773Z,99.90
2019-05-18T20:49:51.488Z,99.90
2019-05-18T20:52:18.865Z,99.90
2019-05-18T20:54:46.461Z,99.90
2019-05-18T20:57:14.006Z,99.90
2019-05-18T20:59:41.403Z,99.90
2019-05-18T21:02:08.847Z,99.90
2019-05-18T21:04:36.253Z,99.90
2019-05-18T21:07:03.709Z,99.90
2019-05-18T21:09:31.113Z,99.90
2019-05-18T21:11:58.528Z,99.90
2019-05-18T21:14:25.953Z,99.90
2019-05-18T21:16:53.391Z,99.90
2019-05-18T21:19:20.745Z,99.90
2019-05-18T21:21:48.198Z,99.90
2019-05-18T21:24:15.587Z,99.90
2019-05-18T21:26:43.004Z,99.90
2019-05-18T21:29:10.449Z,99.90
2019-05-18T21:31:37.859Z,99.90
2019-05-18T21:34:05.225Z,99.90
2019-05-18T21:36:32.734Z,99.90
2019-05-18T21:39:00.147Z,99.90
2019-05-18T21:41:27.634Z,99.90
2019-05-18T21:43:55.286Z,99.90
2019-05-18T21:46:22.638Z,99.90
2019-05-18T21:48:50.048Z,99.90
2019-05-18T21:51:18.170Z,99.90
2019-05-18T21:53:45.580Z,99.90
2019-05-18T21:56:13.017Z,99.90
2019-05-18T21:58:40.423Z,99.90
2019-05-18T22:01:07.880Z,99.90
2019-05-18T22:03:35.272Z,99.90
2019-05-18T22:06:02.668Z,99.90
2019-05-18T22:08:30.115Z,99.90
2019-05-18T22:10:57.555Z,99.90
2019-05-18T22:13:25.010Z,99.90
2019-05-18T22:15:52.470Z,99.90
2019-05-18T22:18:24.630Z,99.90
2019-05-18T22:20:49.135Z,99.90
2019-05-18T22:23:16.636Z,99.90
2019-05-18T22:25:44.122Z,99.90
2019-05-18T22:28:11.488Z,99.90
2019-05-18T22:30:38.854Z,99.90
2019-05-18T22:33:06.342Z,99.90
2019-05-18T22:35:33.870Z,99.90
2019-05-18T22:38:01.302Z,99.90
2019-05-18T22:40:28.670Z,99.90
2019-05-18T22:42:56.063Z,99.90
2019-05-18T22:45:23.445Z,99.90
2019-05-18T22:47:50.826Z,99.90
2019-05-18T22:50:18.237Z,99.90
2019-05-18T22:52:45.624Z,99.90
2019-05-18T22:55:13.185Z,99.90
2019-05-18T22:57:40.618Z,99.90
2019-05-18T23:00:08.266Z,99.90
2019-05-18T23:02:35.700Z,99.90
2019-05-18T23:05:03.119Z,99.90
2019-05-18T23:07:30.531Z,99.90
2019-05-18T23:09:57.976Z,99.90
2019-05-18T23:12:25.364Z,99.90
2019-05-18T23:14:52.778Z,99.90
2019-05-18T23:17:20.230Z,99.90
2019-05-18T23:19:47.886Z,99.90
2019-05-18T23:22:15.273Z,99.90
2019-05-18T23:24:42.639Z,99.90
2019-05-18T23:27:09.995Z,99.90
2019-05-18T23:29:37.409Z,99.90
2019-05-18T23:32:04.825Z,99.90
2019-05-18T23:34:32.144Z,99.90
2019-05-18T23:36:59.528Z,99.90
2019-05-18T23:39:26.913Z,99.90
2019-05-18T23:41:54.357Z,99.90
2019-05-18T23:44:21.833Z,99.90
2019-05-18T23:46:49.214Z,99.90
2019-05-18T23:49:17.026Z,99.90
2019-05-18T23:51:44.453Z,99.90
2019-05-18T23:54:11.936Z,99.90
2019-05-18T23:56:39.299Z,99.90
2019-05-18T23:59:06.751Z,99.90
